createdAt,value
2022-10-02T00:09:55.477Z,14.10
2022-10-02T00:19:57.308Z,14.10
2022-10-02T00:30:01.903Z,14.00
2022-10-02T00:40:37.870Z,14.00
2022-10-02T00:51:08.190Z,14.10
2022-10-02T01:01:16.104Z,14.10
2022-10-02T01:11:19.327Z,14.30
2022-10-02T01:21:45.277Z,14.30
2022-10-02T01:31:47.065Z,14.30
2022-10-02T01:41:48.774Z,14.40
2022-10-02T01:52:21.203Z,14.40
2022-10-02T02:02:48.009Z,14.40
2022-10-02T02:12:59.801Z,14.40
2022-10-02T02:23:07.495Z,14.50
2022-10-02T02:33:17.762Z,14.50
2022-10-02T02:43:27.305Z,14.50
2022-10-02T02:53:42.515Z,14.50
2022-10-02T03:03:44.173Z,14.50
2022-10-02T03:14:21.803Z,14.50
2022-10-02T03:24:39.251Z,14.50
2022-10-02T03:34:40.899Z,14.50
2022-10-02T03:44:43.537Z,14.50
2022-10-02T03:54:45.694Z,14.50
2022-10-02T04:05:02.001Z,14.50
2022-10-02T04:15:37.269Z,14.50
2022-10-02T04:25:45.079Z,14.50
2022-10-02T04:36:34.721Z,14.40
2022-10-02T04:46:54.740Z,14.50
2022-10-02T04:57:02.146Z,14.40
2022-10-02T05:07:33.305Z,14.40
2022-10-02T05:17:58.180Z,14.40
2022-10-02T05:28:21.300Z,14.40
2022-10-02T05:38:44.672Z,14.40
2022-10-02T05:48:55.481Z,14.40
2022-10-02T05:59:00.361Z,14.50
2022-10-02T06:09:04.862Z,14.50
2022-10-02T06:19:39.523Z,14.60
2022-10-02T06:29:50.466Z,14.60
2022-10-02T06:40:03.149Z,14.60
2022-10-02T06:50:28.054Z,14.60
2022-10-02T07:00:36.705Z,14.60
2022-10-02T07:11:15.807Z,14.60
2022-10-02T07:22:20.274Z,14.70
2022-10-02T07:32:42.625Z,14.70
2022-10-02T07:43:14.372Z,14.70
2022-10-02T07:53:51.556Z,14.70
2022-10-02T08:04:00.445Z,14.70
2022-10-02T08:14:11.495Z,14.70
2022-10-02T08:24:15.642Z,14.70
2022-10-02T08:34:18.743Z,14.70
2022-10-02T08:44:44.684Z,14.60
2022-10-02T08:55:04.323Z,14.70
2022-10-02T09:05:11.913Z,14.70
2022-10-02T09:15:24.075Z,14.60
2022-10-02T09:25:41.014Z,14.60
2022-10-02T09:35:53.557Z,14.60
2022-10-02T09:46:14.068Z,14.70
2022-10-02T09:56:55.375Z,14.70
2022-10-02T10:07:12.190Z,14.80
2022-10-02T10:17:15.821Z,14.90
2022-10-02T10:27:25.147Z,14.80
2022-10-02T10:38:10.343Z,14.90
2022-10-02T10:48:49.837Z,14.90
2022-10-02T10:59:13.969Z,14.90
2022-10-02T11:09:26.433Z,14.90
2022-10-02T11:19:54.258Z,14.90
2022-10-02T11:30:41.794Z,14.90
2022-10-02T11:40:59.543Z,15.00
2022-10-02T11:51:24.599Z,15.00
2022-10-02T12:02:04.600Z,15.00
2022-10-02T12:12:32.713Z,15.00
2022-10-02T12:23:12.906Z,15.00
2022-10-02T12:33:34.392Z,15.00
2022-10-02T12:43:45.015Z,15.00
2022-10-02T12:54:17.878Z,15.00
2022-10-02T13:04:50.305Z,15.10
2022-10-02T13:15:06.800Z,15.20
2022-10-02T13:25:34.955Z,15.20
2022-10-02T13:35:46.345Z,15.10
2022-10-02T13:46:10.210Z,15.20
2022-10-02T13:56:30.532Z,15.30
2022-10-02T14:06:39.508Z,15.30
2022-10-02T14:16:41.162Z,15.20
2022-10-02T14:26:52.440Z,15.20
2022-10-02T14:37:16.742Z,15.30
2022-10-02T14:47:43.280Z,15.30
2022-10-02T14:57:47.610Z,15.20
2022-10-02T15:07:49.532Z,15.10
2022-10-02T15:18:20.096Z,15.10
2022-10-02T15:28:37.576Z,15.10
2022-10-02T15:38:48.241Z,15.10
2022-10-02T15:48:58.541Z,15.10
2022-10-02T15:59:13.175Z,15.10
2022-10-02T16:09:34.884Z,15.10
2022-10-02T16:20:02.485Z,15.10
2022-10-02T16:30:14.363Z,15.00
2022-10-02T16:40:42.421Z,15.00
2022-10-02T16:51:08.515Z,14.90
2022-10-02T17:01:34.316Z,14.90
2022-10-02T17:11:47.199Z,14.90
2022-10-02T17:21:55.274Z,14.80
2022-10-02T17:31:58.856Z,14.80
2022-10-02T17:42:28.204Z,14.60
2022-10-02T17:53:03.157Z,14.60
2022-10-02T18:03:28.767Z,14.50
2022-10-02T18:13:59.965Z,14.40
2022-10-02T18:24:25.188Z,14.40
2022-10-02T18:34:44.085Z,14.30
2022-10-02T18:45:12.845Z,14.20
2022-10-02T18:55:27.873Z,14.10
2022-10-02T19:05:53.667Z,14.00
2022-10-02T19:15:58.537Z,13.90
2022-10-02T19:26:17.862Z,13.80
2022-10-02T19:36:24.083Z,13.70
2022-10-02T19:46:37.491Z,13.60
2022-10-02T19:56:43.673Z,13.50
2022-10-02T20:06:49.824Z,13.40
2022-10-02T20:17:09.981Z,13.40
2022-10-02T20:27:35.163Z,13.40
2022-10-02T20:37:39.443Z,13.40
2022-10-02T20:47:46.835Z,13.40
2022-10-02T20:58:09.344Z,13.20
2022-10-02T21:08:57.368Z,13.20
2022-10-02T21:19:23.634Z,13.10
2022-10-02T21:29:53.912Z,13.10
2022-10-02T21:40:24.105Z,13.00
2022-10-02T21:50:50.699Z,13.00
2022-10-02T22:00:59.469Z,13.00
2022-10-02T22:11:12.142Z,13.00
2022-10-02T22:21:24.795Z,13.00
2022-10-02T22:32:17.217Z,13.00
2022-10-02T22:42:26.048Z,13.00
2022-10-02T22:52:53.119Z,12.90
2022-10-02T23:02:57.896Z,12.90
2022-10-02T23:13:10.394Z,12.80
2022-10-02T23:23:17.814Z,12.70
2022-10-02T23:33:27.244Z,12.60
2022-10-02T23:43:35.150Z,12.50
2022-10-02T23:54:10.291Z,12.50
